createdAt,value
2019-05-07T00:02:13.492Z,41.31
2019-05-07T00:04:42.842Z,42.52
2019-05-07T00:07:12.886Z,41.81
2019-05-07T00:09:40.216Z,41.01
2019-05-07T00:12:08.015Z,40.56
2019-05-07T00:14:35.757Z,40.40
2019-05-07T00:17:04.621Z,41.06
2019-05-07T00:19:32.592Z,40.75
2019-05-07T00:22:02.382Z,42.03
2019-05-07T00:24:29.832Z,41.92
2019-05-07T00:27:16.998Z,41.41
2019-05-07T00:29:44.987Z,42.30
2019-05-07T00:32:12.735Z,39.95
2019-05-07T00:34:45.162Z,41.46
2019-05-07T00:37:36.539Z,41.52
2019-05-07T00:40:26.472Z,42.85
2019-05-07T00:43:05.886Z,42.34
2019-05-07T00:45:42.144Z,42.30
2019-05-07T00:48:09.674Z,41.86
2019-05-07T00:50:38.995Z,42.39
2019-05-07T00:53:06.719Z,40.79
2019-05-07T00:55:34.482Z,43.71
2019-05-07T00:58:02.482Z,40.61
2019-05-07T01:00:33.234Z,43.17
2019-05-07T01:03:04.266Z,42.34
2019-05-07T01:05:34.862Z,42.27
2019-05-07T01:08:02.743Z,42.21
2019-05-07T01:10:32.826Z,42.56
2019-05-07T01:12:59.999Z,40.25
2019-05-07T01:15:31.393Z,42.22
2019-05-07T01:17:57.183Z,41.34
2019-05-07T01:20:24.919Z,42.74
2019-05-07T01:22:54.470Z,41.89
2019-05-07T01:25:22.227Z,42.02
2019-05-07T01:27:50.024Z,43.04
2019-05-07T01:30:17.763Z,41.88
2019-05-07T01:32:53.240Z,41.47
2019-05-07T01:35:28.558Z,42.55
2019-05-07T01:37:56.303Z,40.67
2019-05-07T01:40:24.033Z,42.10
2019-05-07T01:42:52.991Z,42.62
2019-05-07T01:45:22.013Z,42.54
2019-05-07T01:47:50.303Z,43.22
2019-05-07T01:50:18.020Z,41.52
2019-05-07T01:52:45.738Z,42.81
2019-05-07T01:55:13.467Z,42.08
2019-05-07T01:57:42.116Z,42.55
2019-05-07T02:00:10.046Z,42.64
2019-05-07T02:02:51.944Z,43.49
2019-05-07T02:05:44.008Z,43.22
2019-05-07T02:08:15.595Z,42.21
2019-05-07T02:10:55.367Z,42.41
2019-05-07T02:13:23.116Z,41.89
2019-05-07T02:15:58.491Z,42.82
2019-05-07T02:18:21.836Z,42.68
2019-05-07T02:20:49.802Z,42.52
2019-05-07T02:23:17.544Z,42.99
2019-05-07T02:25:52.660Z,43.55
2019-05-07T02:28:22.246Z,42.36
2019-05-07T02:30:53.306Z,40.56
2019-05-07T02:33:19.444Z,43.38
2019-05-07T02:35:47.233Z,43.07
2019-05-07T02:38:28.874Z,42.46
2019-05-07T02:41:02.927Z,42.54
2019-05-07T02:43:33.478Z,43.60
2019-05-07T02:46:29.455Z,42.54
2019-05-07T02:48:57.460Z,41.87
2019-05-07T02:51:33.137Z,43.67
2019-05-07T02:54:18.249Z,42.23
2019-05-07T02:56:45.963Z,43.75
2019-05-07T02:59:13.912Z,43.92
2019-05-07T03:01:54.548Z,42.14
2019-05-07T03:04:24.945Z,43.35
2019-05-07T03:06:54.228Z,43.34
2019-05-07T03:09:22.797Z,42.48
2019-05-07T03:11:52.883Z,41.17
2019-05-07T03:14:20.049Z,41.39
2019-05-07T03:16:49.536Z,43.43
2019-05-07T03:19:17.452Z,43.65
2019-05-07T03:21:54.656Z,41.99
2019-05-07T03:24:36.150Z,42.64
2019-05-07T03:27:07.141Z,42.93
2019-05-07T03:29:35.466Z,43.62
2019-05-07T03:32:39.911Z,42.04
2019-05-07T03:35:28.602Z,43.76
2019-05-07T03:37:56.678Z,44.27
2019-05-07T03:40:24.459Z,41.75
2019-05-07T03:42:53.575Z,42.39
2019-05-07T03:45:56.041Z,43.00
2019-05-07T03:48:26.620Z,43.27
2019-05-07T03:51:04.697Z,42.59
2019-05-07T03:53:33.829Z,41.96
2019-05-07T03:56:04.094Z,41.90
2019-05-07T03:58:33.953Z,43.73
2019-05-07T04:01:03.954Z,43.23
2019-05-07T04:03:33.671Z,44.28
2019-05-07T04:05:59.966Z,43.03
2019-05-07T04:08:27.775Z,44.31
2019-05-07T04:10:55.508Z,43.71
2019-05-07T04:13:24.210Z,44.26
2019-05-07T04:15:52.688Z,44.16
2019-05-07T04:18:23.314Z,43.99
2019-05-07T04:21:03.735Z,44.45
2019-05-07T04:23:27.740Z,43.70
2019-05-07T04:26:17.745Z,43.48
2019-05-07T04:28:54.209Z,43.90
2019-05-07T04:31:23.275Z,42.79
2019-05-07T04:33:53.353Z,43.21
2019-05-07T04:36:24.008Z,42.25
2019-05-07T04:38:53.834Z,43.13
2019-05-07T04:41:23.440Z,43.28
2019-05-07T04:43:53.846Z,42.18
2019-05-07T04:46:23.319Z,44.80
2019-05-07T04:48:52.615Z,43.61
2019-05-07T04:51:25.307Z,46.03
2019-05-07T04:53:54.163Z,44.25
2019-05-07T04:56:23.957Z,42.44
2019-05-07T04:58:53.059Z,42.74
2019-05-07T05:01:23.531Z,44.34
2019-05-07T05:03:54.111Z,42.92
2019-05-07T05:06:23.870Z,43.55
2019-05-07T05:08:56.980Z,45.92
2019-05-07T05:11:24.774Z,42.15
2019-05-07T05:13:53.344Z,44.19
2019-05-07T05:16:24.929Z,44.07
2019-05-07T05:18:52.775Z,42.93
2019-05-07T05:21:52.851Z,44.19
2019-05-07T05:24:32.943Z,45.83
2019-05-07T05:27:02.564Z,40.83
2019-05-07T05:29:32.288Z,45.28
2019-05-07T05:32:02.226Z,41.69
2019-05-07T05:34:29.639Z,47.28
2019-05-07T05:36:58.117Z,43.99
2019-05-07T05:39:25.811Z,43.84
2019-05-07T05:41:59.015Z,46.75
2019-05-07T05:44:32.124Z,47.43
2019-05-07T05:47:02.319Z,47.73
2019-05-07T05:49:40.161Z,47.06
2019-05-07T05:52:12.467Z,47.14
2019-05-07T05:54:45.082Z,47.01
2019-05-07T05:57:38.215Z,46.74
2019-05-07T06:00:27.745Z,47.32
2019-05-07T06:03:03.606Z,47.16
2019-05-07T06:05:49.611Z,46.67
2019-05-07T06:08:39.572Z,47.66
2019-05-07T06:11:44.510Z,44.81
2019-05-07T06:14:33.087Z,45.96
2019-05-07T06:17:25.926Z,46.27
2019-05-07T06:20:03.086Z,40.94
2019-05-07T06:22:50.109Z,44.46
2019-05-07T06:25:24.275Z,44.94
2019-05-07T06:28:03.781Z,45.43
2019-05-07T06:30:25.007Z,43.79
2019-05-07T06:32:52.779Z,45.04
2019-05-07T06:35:22.777Z,44.25
2019-05-07T06:37:52.038Z,44.32
2019-05-07T06:40:37.830Z,44.03
2019-05-07T06:43:22.155Z,41.83
2019-05-07T06:45:53.748Z,43.87
2019-05-07T06:48:38.085Z,43.42
2019-05-07T06:50:57.409Z,44.39
2019-05-07T06:53:28.604Z,43.57
2019-05-07T06:55:56.788Z,43.86
2019-05-07T06:58:26.782Z,43.96
2019-05-07T07:01:14.939Z,44.01
2019-05-07T07:04:02.395Z,42.63
2019-05-07T07:06:33.659Z,42.48
2019-05-07T07:09:32.984Z,41.50
2019-05-07T07:12:02.245Z,43.34
2019-05-07T07:14:30.039Z,42.81
2019-05-07T07:16:57.763Z,43.25
2019-05-07T07:19:26.536Z,41.48
2019-05-07T07:21:58.159Z,42.93
2019-05-07T07:24:26.026Z,42.30
2019-05-07T07:26:53.726Z,41.50
2019-05-07T07:29:23.436Z,42.59
2019-05-07T07:31:54.223Z,42.25
2019-05-07T07:34:22.918Z,41.98
2019-05-07T07:37:09.797Z,41.86
2019-05-07T07:39:34.589Z,42.20
2019-05-07T07:42:03.757Z,41.28
2019-05-07T07:44:33.014Z,42.09
2019-05-07T07:47:02.456Z,42.10
2019-05-07T07:49:32.974Z,42.32
2019-05-07T07:52:03.007Z,41.57
2019-05-07T07:54:32.091Z,41.75
2019-05-07T07:57:05.378Z,41.90
2019-05-07T07:59:52.900Z,41.62
2019-05-07T08:02:32.206Z,41.26
2019-05-07T08:05:02.072Z,42.00
2019-05-07T08:07:29.727Z,41.27
2019-05-07T08:09:57.490Z,41.62
2019-05-07T08:12:25.281Z,41.54
2019-05-07T08:14:53.057Z,41.69
2019-05-07T08:17:22.325Z,42.38
2019-05-07T08:19:51.994Z,41.84
2019-05-07T08:22:22.360Z,42.21
2019-05-07T08:24:51.758Z,42.26
2019-05-07T08:27:18.965Z,42.12
2019-05-07T08:29:46.826Z,42.10
2019-05-07T08:32:30.126Z,42.01
2019-05-07T08:35:03.082Z,42.12
2019-05-07T08:37:32.073Z,41.76
2019-05-07T08:40:02.906Z,42.10
2019-05-07T08:42:31.913Z,42.63
2019-05-07T08:45:11.961Z,42.81
2019-05-07T08:47:46.713Z,42.03
2019-05-07T08:50:14.504Z,41.90
2019-05-07T08:52:42.399Z,41.66
2019-05-07T08:55:12.409Z,41.56
2019-05-07T08:57:41.929Z,42.64
2019-05-07T09:00:09.592Z,42.07
2019-05-07T09:02:37.434Z,41.21
2019-05-07T09:05:05.254Z,41.69
2019-05-07T09:07:33.035Z,39.89
2019-05-07T09:10:02.469Z,41.27
2019-05-07T09:12:31.877Z,41.80
2019-05-07T09:15:02.004Z,42.05
2019-05-07T09:17:29.383Z,41.58
2019-05-07T09:19:57.261Z,42.69
2019-05-07T09:22:25.120Z,41.00
2019-05-07T09:24:52.924Z,41.47
2019-05-07T09:27:32.714Z,41.64
2019-05-07T09:30:10.095Z,41.76
2019-05-07T09:32:48.013Z,41.21
2019-05-07T09:35:21.650Z,41.49
2019-05-07T09:37:49.602Z,41.75
2019-05-07T09:40:17.460Z,41.40
2019-05-07T09:42:45.342Z,42.03
2019-05-07T09:45:13.157Z,41.68
2019-05-07T09:47:41.784Z,41.69
2019-05-07T09:50:11.681Z,42.37
2019-05-07T09:52:39.355Z,41.81
2019-05-07T09:55:16.485Z,43.04
2019-05-07T09:57:36.692Z,43.14
2019-05-07T10:00:04.635Z,42.22
2019-05-07T10:02:32.536Z,42.91
2019-05-07T10:05:02.368Z,43.06
2019-05-07T10:07:32.216Z,41.65
2019-05-07T10:09:59.499Z,42.10
2019-05-07T10:12:42.038Z,42.67
2019-05-07T10:15:12.086Z,40.68
2019-05-07T10:17:44.701Z,41.79
2019-05-07T10:20:21.509Z,42.05
2019-05-07T10:22:42.826Z,39.84
2019-05-07T10:25:12.185Z,41.45
2019-05-07T10:27:41.860Z,42.36
2019-05-07T10:30:09.777Z,41.71
2019-05-07T10:32:37.605Z,40.70
2019-05-07T10:35:05.611Z,41.64
2019-05-07T10:37:33.483Z,41.73
2019-05-07T10:40:03.015Z,41.44
2019-05-07T10:42:32.271Z,40.76
2019-05-07T10:45:28.066Z,40.97
2019-05-07T10:48:06.458Z,39.00
2019-05-07T10:50:38.925Z,40.01
2019-05-07T10:53:04.746Z,40.09
2019-05-07T10:55:32.909Z,38.81
2019-05-07T10:58:02.759Z,40.26
2019-05-07T11:00:30.431Z,38.80
2019-05-07T11:02:58.324Z,39.72
2019-05-07T11:05:26.475Z,40.09
2019-05-07T11:07:54.248Z,38.06
2019-05-07T11:10:22.074Z,39.78
2019-05-07T11:12:51.582Z,40.87
2019-05-07T11:15:21.847Z,40.20
2019-05-07T11:17:57.366Z,40.13
2019-05-07T11:20:25.173Z,39.39
2019-05-07T11:22:53.022Z,40.72
2019-05-07T11:25:22.543Z,41.21
2019-05-07T11:27:52.438Z,40.96
2019-05-07T11:30:20.026Z,41.02
2019-05-07T11:32:47.881Z,41.50
2019-05-07T11:35:15.641Z,41.09
2019-05-07T11:37:44.327Z,40.83
2019-05-07T11:40:13.103Z,41.44
2019-05-07T11:43:14.875Z,41.10
2019-05-07T11:45:58.840Z,41.52
2019-05-07T11:48:26.349Z,41.42
2019-05-07T11:51:04.299Z,41.59
2019-05-07T11:53:32.751Z,41.68
2019-05-07T11:56:02.496Z,41.78
2019-05-07T11:58:32.317Z,41.68
2019-05-07T12:01:06.560Z,41.97
2019-05-07T12:03:34.518Z,41.82
2019-05-07T12:06:02.332Z,41.52
2019-05-07T12:08:39.326Z,41.42
2019-05-07T12:10:59.631Z,41.39
2019-05-07T12:13:27.452Z,41.40
2019-05-07T12:15:55.334Z,40.13
2019-05-07T12:18:23.107Z,41.15
2019-05-07T12:20:53.939Z,41.46
2019-05-07T12:23:22.447Z,41.26
2019-05-07T12:25:49.897Z,41.40
2019-05-07T12:28:17.726Z,40.69
2019-05-07T12:31:04.159Z,41.43
2019-05-07T12:33:54.077Z,41.21
2019-05-07T12:36:22.748Z,41.04
2019-05-07T12:38:53.079Z,41.31
2019-05-07T12:41:29.651Z,41.66
2019-05-07T12:43:58.145Z,41.44
2019-05-07T12:46:25.956Z,41.59
2019-05-07T12:48:53.831Z,39.19
2019-05-07T12:51:33.918Z,38.99
2019-05-07T12:53:56.405Z,40.23
2019-05-07T12:56:24.282Z,41.04
2019-05-07T12:58:52.169Z,41.02
2019-05-07T13:01:36.423Z,41.09
2019-05-07T13:04:07.532Z,41.27
2019-05-07T13:06:39.644Z,42.05
2019-05-07T13:09:07.732Z,40.47
2019-05-07T13:11:35.578Z,41.96
2019-05-07T13:14:03.432Z,40.40
2019-05-07T13:16:32.368Z,42.17
2019-05-07T13:19:01.896Z,39.82
2019-05-07T13:21:31.782Z,39.47
2019-05-07T13:23:59.469Z,41.06
2019-05-07T13:26:27.288Z,42.16
2019-05-07T13:28:55.169Z,42.07
2019-05-07T13:31:23.082Z,42.10
2019-05-07T13:33:52.413Z,42.04
2019-05-07T13:36:22.063Z,41.90
2019-05-07T13:38:56.749Z,41.45
2019-05-07T13:41:51.823Z,41.24
2019-05-07T13:44:41.064Z,40.92
2019-05-07T13:47:34.138Z,40.07
2019-05-07T13:50:02.626Z,40.55
2019-05-07T13:52:32.752Z,39.89
2019-05-07T13:55:01.546Z,39.04
2019-05-07T13:57:29.765Z,40.53
2019-05-07T13:59:58.072Z,41.22
2019-05-07T14:02:28.645Z,41.28
2019-05-07T14:04:56.589Z,40.50
2019-05-07T14:07:25.793Z,39.96
2019-05-07T14:09:53.681Z,40.16
2019-05-07T14:12:22.977Z,40.66
2019-05-07T14:14:52.818Z,40.45
2019-05-07T14:17:21.924Z,40.61
2019-05-07T14:19:49.928Z,40.25
2019-05-07T14:22:19.146Z,40.38
2019-05-07T14:24:47.721Z,40.70
2019-05-07T14:27:15.856Z,40.44
2019-05-07T14:29:52.856Z,40.97
2019-05-07T14:32:30.199Z,40.88
2019-05-07T14:35:17.021Z,40.92
2019-05-07T14:37:48.379Z,41.16
2019-05-07T14:40:16.304Z,41.42
2019-05-07T14:42:48.767Z,41.36
2019-05-07T14:45:16.618Z,40.18
2019-05-07T14:47:44.877Z,40.51
2019-05-07T14:50:13.461Z,38.98
2019-05-07T14:52:43.077Z,38.75
2019-05-07T14:55:12.811Z,40.39
2019-05-07T14:57:42.048Z,40.35
2019-05-07T15:00:12.049Z,40.70
2019-05-07T15:02:39.494Z,40.55
2019-05-07T15:05:07.526Z,39.93
2019-05-07T15:07:35.402Z,40.36
2019-05-07T15:10:03.287Z,39.97
2019-05-07T15:12:32.876Z,41.29
2019-05-07T15:15:02.175Z,41.04
2019-05-07T15:17:55.635Z,40.40
2019-05-07T15:20:23.469Z,41.27
2019-05-07T15:23:02.800Z,41.45
2019-05-07T15:25:32.030Z,41.05
2019-05-07T15:28:01.776Z,41.50
2019-05-07T15:30:36.281Z,40.42
2019-05-07T15:33:04.171Z,41.39
2019-05-07T15:35:32.127Z,41.32
2019-05-07T15:38:02.277Z,41.05
2019-05-07T15:40:29.553Z,40.94
2019-05-07T15:42:57.455Z,40.58
2019-05-07T15:45:25.393Z,40.35
2019-05-07T15:54:13.508Z,40.63
2019-05-07T15:56:41.236Z,40.75
2019-05-07T15:59:22.478Z,40.23
2019-05-07T16:01:54.750Z,40.30
2019-05-07T16:04:25.974Z,40.20
2019-05-07T16:06:57.431Z,40.36
2019-05-07T16:09:26.809Z,40.19
2019-05-07T16:11:54.538Z,38.83
2019-05-07T16:14:27.927Z,39.40
2019-05-07T16:17:02.568Z,39.09
2019-05-07T16:19:32.125Z,39.11
2019-05-07T16:22:04.595Z,39.51
2019-05-07T16:24:33.467Z,39.27
2019-05-07T16:27:04.930Z,38.93
2019-05-07T16:29:39.595Z,38.79
2019-05-07T16:32:07.403Z,39.33
2019-05-07T16:34:35.343Z,38.42
2019-05-07T16:37:06.839Z,38.78
2019-05-07T16:39:32.708Z,39.14
2019-05-07T16:42:01.877Z,39.07
2019-05-07T16:44:29.872Z,39.25
2019-05-07T16:46:57.585Z,39.18
2019-05-07T16:49:25.438Z,39.63
2019-05-07T16:51:53.163Z,39.50
2019-05-07T16:54:20.903Z,39.15
2019-05-07T16:57:06.735Z,39.50
2019-05-07T16:59:39.010Z,39.23
2019-05-07T17:02:12.990Z,39.05
2019-05-07T17:04:43.235Z,39.47
2019-05-07T17:07:13.327Z,37.73
2019-05-07T17:09:42.434Z,38.26
2019-05-07T17:12:11.988Z,38.74
2019-05-07T17:14:39.678Z,39.45
2019-05-07T17:17:07.388Z,38.82
2019-05-07T17:19:35.356Z,39.80
2019-05-07T17:22:06.324Z,38.92
2019-05-07T17:24:33.004Z,39.25
2019-05-07T17:27:11.904Z,39.45
2019-05-07T17:29:42.772Z,39.31
2019-05-07T17:32:12.293Z,39.94
2019-05-07T17:34:41.983Z,39.32
2019-05-07T17:37:09.471Z,39.01
2019-05-07T17:39:37.179Z,38.98
2019-05-07T17:42:04.978Z,38.96
2019-05-07T17:44:33.229Z,38.64
2019-05-07T17:47:01.962Z,38.70
2019-05-07T17:49:29.867Z,38.30
2019-05-07T17:51:57.621Z,38.56
2019-05-07T17:54:25.399Z,38.69
2019-05-07T17:56:53.155Z,38.41
2019-05-07T17:59:21.034Z,38.54
2019-05-07T18:02:10.231Z,38.38
2019-05-07T18:04:50.500Z,37.75
2019-05-07T18:07:09.117Z,37.42
2019-05-07T18:09:36.854Z,37.55
2019-05-07T18:12:04.606Z,37.76
2019-05-07T18:14:32.381Z,37.62
2019-05-07T18:17:21.979Z,37.70
2019-05-07T18:19:53.611Z,37.43
2019-05-07T18:22:27.280Z,37.48
2019-05-07T18:24:54.982Z,37.34
2019-05-07T18:27:24.502Z,37.17
2019-05-07T18:29:52.715Z,36.98
2019-05-07T18:32:21.927Z,37.30
2019-05-07T18:34:51.791Z,36.89
2019-05-07T18:37:19.532Z,36.70
2019-05-07T18:39:47.386Z,36.52
2019-05-07T18:42:15.099Z,36.46
2019-05-07T18:44:42.819Z,36.91
2019-05-07T18:47:12.747Z,37.00
2019-05-07T18:49:42.849Z,37.65
2019-05-07T18:52:15.639Z,36.79
2019-05-07T18:54:42.831Z,37.23
2019-05-07T18:57:10.666Z,37.43
2019-05-07T18:59:38.416Z,36.63
2019-05-07T19:02:06.229Z,36.49
2019-05-07T19:04:34.014Z,37.52
2019-05-07T19:07:02.528Z,37.18
2019-05-07T19:09:31.985Z,36.97
2019-05-07T19:11:59.904Z,37.35
2019-05-07T19:14:27.734Z,37.33
2019-05-07T19:16:55.517Z,36.65
2019-05-07T19:19:23.260Z,37.10
2019-05-07T19:21:52.863Z,37.32
2019-05-07T19:24:24.100Z,36.98
2019-05-07T19:26:49.874Z,36.40
2019-05-07T19:29:17.631Z,36.55
2019-05-07T19:31:45.436Z,37.17
2019-05-07T19:34:13.206Z,36.24
2019-05-07T19:36:42.420Z,36.86
2019-05-07T19:39:12.501Z,36.92
2019-05-07T19:41:39.835Z,37.10
2019-05-07T19:44:07.559Z,37.23
2019-05-07T19:46:35.435Z,36.76
2019-05-07T19:49:03.178Z,36.54
2019-05-07T19:51:32.077Z,36.72
2019-05-07T19:54:01.939Z,36.87
2019-05-07T19:56:29.426Z,36.56
2019-05-07T19:58:58.191Z,36.74
2019-05-07T20:01:34.749Z,36.76
2019-05-07T20:04:08.835Z,36.47
2019-05-07T20:06:36.763Z,36.39
2019-05-07T20:09:12.164Z,36.37
2019-05-07T20:11:46.535Z,36.03
2019-05-07T20:14:14.566Z,36.60
2019-05-07T20:16:42.266Z,36.48
2019-05-07T20:19:11.915Z,36.60
2019-05-07T20:21:39.435Z,36.48
2019-05-07T20:24:07.259Z,35.87
2019-05-07T20:26:35.846Z,36.44
2019-05-07T20:29:03.579Z,35.82
2019-05-07T20:31:33.879Z,36.49
2019-05-07T20:34:04.682Z,35.96
2019-05-07T20:36:32.907Z,36.32
2019-05-07T20:39:02.210Z,36.49
2019-05-07T20:41:48.794Z,36.83
2019-05-07T20:44:16.512Z,36.88
2019-05-07T20:46:48.432Z,37.18
2019-05-07T20:49:16.354Z,36.88
2019-05-07T20:51:44.083Z,36.86
2019-05-07T20:54:22.865Z,36.75
2019-05-07T20:56:58.959Z,36.35
2019-05-07T20:59:26.751Z,36.76
2019-05-07T21:01:54.575Z,37.07
2019-05-07T21:04:22.421Z,37.10
2019-05-07T21:06:52.377Z,37.73
2019-05-07T21:09:21.942Z,37.17
2019-05-07T21:11:49.129Z,37.69
2019-05-07T21:14:16.906Z,37.74
2019-05-07T21:16:44.603Z,37.95
2019-05-07T21:19:12.948Z,37.19
2019-05-07T21:21:42.184Z,37.19
2019-05-07T21:24:10.065Z,37.57
2019-05-07T21:26:37.773Z,37.53
2019-05-07T21:29:08.905Z,37.92
2019-05-07T21:31:38.800Z,37.36
2019-05-07T21:34:06.544Z,38.09
2019-05-07T21:36:34.278Z,38.40
2019-05-07T21:39:02.395Z,37.90
2019-05-07T21:41:30.323Z,37.60
2019-05-07T21:43:58.051Z,38.31
2019-05-07T21:46:25.795Z,38.22
2019-05-07T21:48:53.810Z,38.14
2019-05-07T21:51:22.885Z,38.36
2019-05-07T21:54:12.732Z,38.21
2019-05-07T21:57:02.084Z,38.09
2019-05-07T21:59:33.501Z,38.25
2019-05-07T22:02:02.221Z,38.22
2019-05-07T22:04:30.055Z,38.37
2019-05-07T22:06:57.799Z,38.80
2019-05-07T22:09:25.588Z,38.50
2019-05-07T22:11:53.773Z,38.50
2019-05-07T22:14:22.348Z,38.85
2019-05-07T22:16:54.169Z,38.34
2019-05-07T22:19:19.631Z,38.46
2019-05-07T22:21:53.644Z,38.56
2019-05-07T22:24:25.515Z,38.91
2019-05-07T22:26:53.227Z,38.57
2019-05-07T22:29:22.752Z,38.61
2019-05-07T22:32:02.606Z,38.78
2019-05-07T22:34:52.040Z,38.70
2019-05-07T22:37:22.002Z,38.47
2019-05-07T22:40:06.929Z,38.59
2019-05-07T22:42:34.739Z,38.44
2019-05-07T22:45:02.930Z,37.92
2019-05-07T22:47:32.618Z,38.33
2019-05-07T22:50:02.582Z,39.31
2019-05-07T22:52:29.839Z,38.22
2019-05-07T22:54:57.563Z,38.58
2019-05-07T22:58:13.979Z,38.49
2019-05-07T23:00:44.863Z,38.46
2019-05-07T23:03:12.742Z,38.80
2019-05-07T23:05:42.248Z,38.49
2019-05-07T23:08:09.911Z,38.73
2019-05-07T23:10:37.665Z,38.77
2019-05-07T23:13:05.414Z,38.77
2019-05-07T23:15:33.147Z,39.15
2019-05-07T23:18:04.136Z,39.40
2019-05-07T23:20:32.006Z,38.71
2019-05-07T23:22:59.930Z,38.57
2019-05-07T23:25:36.775Z,39.30
2019-05-07T23:28:05.198Z,39.23
2019-05-07T23:30:33.189Z,39.10
2019-05-07T23:33:02.426Z,38.91
2019-05-07T23:35:30.342Z,38.96
2019-05-07T23:37:58.119Z,39.24
2019-05-07T23:40:33.738Z,38.65
2019-05-07T23:43:02.952Z,39.33
2019-05-07T23:45:30.738Z,39.07
2019-05-07T23:47:58.459Z,39.34
2019-05-07T23:50:26.394Z,39.25
2019-05-07T23:52:54.132Z,39.70
2019-05-07T23:55:22.818Z,39.32
2019-05-07T23:57:54.035Z,39.12
